createdAt,value
2023-05-02T00:00:23.586Z,14.20
2023-05-02T00:01:23.547Z,13.60
2023-05-02T00:02:23.684Z,15.40
2023-05-02T00:03:23.579Z,12.90
2023-05-02T00:04:23.664Z,15.30
2023-05-02T00:05:23.523Z,16.10
2023-05-02T00:06:23.564Z,14.50
2023-05-02T00:07:23.487Z,15.20
2023-05-02T00:08:23.530Z,13.50
2023-05-02T00:09:23.477Z,13.20
2023-05-02T00:10:23.482Z,13.30
2023-05-02T00:11:23.499Z,13.80
2023-05-02T00:12:23.464Z,12.50
2023-05-02T00:13:23.439Z,13.10
2023-05-02T00:14:23.492Z,12.80
2023-05-02T00:15:23.438Z,11.60
2023-05-02T00:16:23.453Z,12.00
2023-05-02T00:17:23.571Z,11.40
2023-05-02T00:18:23.424Z,11.80
2023-05-02T00:19:23.396Z,9.80
2023-05-02T00:20:23.408Z,10.70
2023-05-02T00:21:23.373Z,9.00
2023-05-02T00:22:23.384Z,10.10
2023-05-02T00:23:23.349Z,8.80
2023-05-02T00:24:23.358Z,9.20
2023-05-02T00:25:23.341Z,8.70
2023-05-02T00:26:23.429Z,8.00
2023-05-02T00:27:23.319Z,7.60
2023-05-02T00:28:23.323Z,8.10
2023-05-02T00:29:23.304Z,9.20
2023-05-02T00:30:23.321Z,10.30
2023-05-02T00:31:23.308Z,7.50
2023-05-02T00:32:23.377Z,7.80
2023-05-02T00:33:23.266Z,9.90
2023-05-02T00:34:23.274Z,10.70
2023-05-02T00:35:23.248Z,9.40
2023-05-02T00:36:23.253Z,9.70
2023-05-02T00:37:23.233Z,9.80
2023-05-02T00:38:23.302Z,9.80
2023-05-02T00:39:23.231Z,9.70
2023-05-02T00:40:23.216Z,11.10
2023-05-02T00:41:23.232Z,10.50
2023-05-02T00:42:23.210Z,11.00
2023-05-02T00:43:23.189Z,10.60
2023-05-02T00:44:23.242Z,11.40
2023-05-02T00:45:23.173Z,11.60
2023-05-02T00:46:23.270Z,10.80
2023-05-02T00:47:23.151Z,10.30
2023-05-02T00:48:23.171Z,9.90
2023-05-02T00:49:23.128Z,10.20
2023-05-02T00:50:23.161Z,11.20
2023-05-02T00:51:23.117Z,9.90
2023-05-02T00:52:23.123Z,10.30
2023-05-02T00:53:23.101Z,9.60
2023-05-02T00:54:23.102Z,9.50
2023-05-02T00:55:23.125Z,8.70
2023-05-02T00:56:23.120Z,10.20
2023-05-02T00:57:23.159Z,9.00
2023-05-02T00:58:23.076Z,9.60
2023-05-02T00:59:23.077Z,9.30
2023-05-02T01:00:23.056Z,9.50
2023-05-02T01:01:23.087Z,9.30
2023-05-02T01:02:23.266Z,9.40
2023-05-02T01:03:23.084Z,8.50
2023-05-02T01:04:23.032Z,9.40
2023-05-02T01:05:23.003Z,9.20
2023-05-02T01:06:23.049Z,11.00
2023-05-02T01:07:23.025Z,10.20
2023-05-02T01:08:22.992Z,10.40
2023-05-02T01:09:22.961Z,10.80
2023-05-02T01:10:22.993Z,9.60
2023-05-02T01:11:22.958Z,10.80
2023-05-02T01:12:22.962Z,10.80
2023-05-02T01:13:22.956Z,11.30
2023-05-02T01:14:22.948Z,11.10
2023-05-02T01:15:22.942Z,10.30
2023-05-02T01:16:22.973Z,9.90
2023-05-02T01:17:22.949Z,10.60
2023-05-02T01:18:22.926Z,9.30
2023-05-02T01:19:22.877Z,8.70
2023-05-02T01:20:22.885Z,9.00
2023-05-02T01:21:22.884Z,9.00
2023-05-02T01:22:22.873Z,9.00
2023-05-02T01:23:22.865Z,8.80
2023-05-02T01:24:22.867Z,9.20
2023-05-02T01:25:22.848Z,8.40
2023-05-02T01:26:22.831Z,7.70
2023-05-02T01:27:22.819Z,8.10
2023-05-02T01:28:22.795Z,7.70
2023-05-02T01:29:22.799Z,7.70
2023-05-02T01:30:22.806Z,9.10
2023-05-02T01:31:22.800Z,7.00
2023-05-02T01:32:22.778Z,8.20
2023-05-02T01:33:22.779Z,8.50
2023-05-02T01:34:22.760Z,8.50
2023-05-02T01:35:22.765Z,8.10
2023-05-02T01:36:22.784Z,8.20
2023-05-02T01:37:22.748Z,9.20
2023-05-02T01:38:22.731Z,8.30
2023-05-02T01:39:22.767Z,9.00
2023-05-02T01:40:22.750Z,7.80
2023-05-02T01:41:22.715Z,8.90
2023-05-02T01:42:22.728Z,8.50
2023-05-02T01:43:22.703Z,8.70
2023-05-02T01:44:22.678Z,7.50
2023-05-02T01:45:22.694Z,8.60
2023-05-02T01:46:22.684Z,8.80
2023-05-02T01:47:22.720Z,9.50
2023-05-02T01:48:22.681Z,9.10
2023-05-02T01:49:22.662Z,9.20
2023-05-02T01:50:22.633Z,10.60
2023-05-02T01:51:22.647Z,10.60
2023-05-02T01:52:22.632Z,9.90
2023-05-02T01:53:22.609Z,9.60
2023-05-02T01:54:22.621Z,11.00
2023-05-02T01:55:22.607Z,12.40
2023-05-02T01:56:22.605Z,10.90
2023-05-02T01:57:22.577Z,10.90
2023-05-02T01:58:22.572Z,10.00
2023-05-02T01:59:22.576Z,10.40
2023-05-02T02:00:22.559Z,11.00
2023-05-02T02:01:22.581Z,9.60
2023-05-02T02:02:22.543Z,10.90
2023-05-02T02:03:22.594Z,10.60
2023-05-02T02:04:22.556Z,10.20
2023-05-02T02:05:22.528Z,9.90
2023-05-02T02:06:22.572Z,9.80
2023-05-02T02:07:22.499Z,9.10
2023-05-02T02:08:22.484Z,9.80
2023-05-02T02:09:22.488Z,9.20
2023-05-02T02:10:22.471Z,9.70
2023-05-02T02:11:22.479Z,9.60
2023-05-02T02:12:22.587Z,10.20
2023-05-02T02:13:22.477Z,9.80
2023-05-02T02:14:22.444Z,11.00
2023-05-02T02:15:22.462Z,9.90
2023-05-02T02:16:22.438Z,9.20
2023-05-02T02:17:22.409Z,8.70
2023-05-02T02:18:22.469Z,9.80
2023-05-02T02:19:22.406Z,9.70
2023-05-02T02:20:22.386Z,8.40
2023-05-02T02:21:22.393Z,9.20
2023-05-02T02:22:22.375Z,8.50
2023-05-02T02:23:22.375Z,9.70
2023-05-02T02:24:22.381Z,8.80
2023-05-02T02:25:22.361Z,9.60
2023-05-02T02:26:22.345Z,9.50
2023-05-02T02:27:22.350Z,8.30
2023-05-02T02:28:22.349Z,9.10
2023-05-02T02:29:22.320Z,8.40
2023-05-02T02:30:22.379Z,9.40
2023-05-02T02:31:22.327Z,7.90
2023-05-02T02:32:22.377Z,8.80
2023-05-02T02:33:22.289Z,8.70
2023-05-02T02:34:22.288Z,7.90
2023-05-02T02:35:22.273Z,6.80
2023-05-02T02:36:22.283Z,7.80
2023-05-02T02:37:22.277Z,8.00
2023-05-02T02:38:22.242Z,8.00
2023-05-02T02:39:22.247Z,7.50
2023-05-02T02:40:22.252Z,7.60
2023-05-02T02:41:22.232Z,7.40
2023-05-02T02:42:22.261Z,8.70
2023-05-02T02:43:22.224Z,7.40
2023-05-02T02:44:22.181Z,8.40
2023-05-02T02:45:22.189Z,8.00
2023-05-02T02:46:22.222Z,7.60
2023-05-02T02:47:22.171Z,7.50
2023-05-02T02:48:22.173Z,8.40
2023-05-02T02:49:22.156Z,7.80
2023-05-02T02:50:22.139Z,8.20
2023-05-02T02:51:22.143Z,8.10
2023-05-02T02:52:22.115Z,7.90
2023-05-02T02:53:22.196Z,8.60
2023-05-02T02:54:27.053Z,8.70
2023-05-02T02:55:23.108Z,8.10
2023-05-02T02:56:22.085Z,9.70
2023-05-02T02:57:22.080Z,8.80
2023-05-02T02:58:22.066Z,8.50
2023-05-02T02:59:22.092Z,8.00
2023-05-02T03:00:22.171Z,7.70
2023-05-02T03:01:22.145Z,8.60
2023-05-02T03:02:22.041Z,7.60
2023-05-02T03:03:22.143Z,8.90
2023-05-02T03:04:22.058Z,9.10
2023-05-02T03:05:22.043Z,9.00
2023-05-02T03:06:22.126Z,8.80
2023-05-02T03:07:22.000Z,8.40
2023-05-02T03:08:21.981Z,8.20
2023-05-02T03:09:21.977Z,9.20
2023-05-02T03:10:21.975Z,9.80
2023-05-02T03:11:22.023Z,9.70
2023-05-02T03:12:21.965Z,7.60
2023-05-02T03:13:21.953Z,8.40
2023-05-02T03:14:21.948Z,10.00
2023-05-02T03:15:21.941Z,10.10
2023-05-02T03:16:21.995Z,8.40
2023-05-02T03:17:23.800Z,8.60
2023-05-02T03:18:21.906Z,8.30
2023-05-02T03:19:21.999Z,8.80
2023-05-02T03:20:21.891Z,7.70
2023-05-02T03:21:21.904Z,8.20
2023-05-02T03:22:21.873Z,8.20
2023-05-02T03:23:21.918Z,8.00
2023-05-02T03:24:21.860Z,7.70
2023-05-02T03:25:21.855Z,8.40
2023-05-02T03:26:21.827Z,8.60
2023-05-02T03:27:21.830Z,8.70
2023-05-02T03:28:21.836Z,8.80
2023-05-02T03:29:21.842Z,8.60
2023-05-02T03:30:21.805Z,8.30
2023-05-02T03:31:21.932Z,8.80
2023-05-02T03:32:21.806Z,8.90
2023-05-02T03:33:21.789Z,8.30
2023-05-02T03:34:21.768Z,8.70
2023-05-02T03:35:21.825Z,9.70
2023-05-02T03:36:21.770Z,10.10
2023-05-02T03:37:21.780Z,8.90
2023-05-02T03:38:21.727Z,8.60
2023-05-02T03:39:21.747Z,11.30
2023-05-02T03:40:21.847Z,9.80
2023-05-02T03:41:21.748Z,8.60
2023-05-02T03:42:21.718Z,9.70
2023-05-02T03:43:21.724Z,8.60
2023-05-02T03:44:21.700Z,10.20
2023-05-02T03:45:21.691Z,8.90
2023-05-02T03:46:21.731Z,8.40
2023-05-02T03:47:21.742Z,8.40
2023-05-02T03:48:21.674Z,8.50
2023-05-02T03:49:21.645Z,7.40
2023-05-02T03:50:21.635Z,8.60
2023-05-02T03:51:21.631Z,9.20
2023-05-02T03:52:21.613Z,8.90
2023-05-02T03:53:21.648Z,9.60
2023-05-02T03:54:21.614Z,8.10
2023-05-02T03:55:21.597Z,10.00
2023-05-02T03:56:21.590Z,9.30
2023-05-02T03:57:21.590Z,7.70
2023-05-02T03:58:21.635Z,9.40
2023-05-02T03:59:21.568Z,9.40
2023-05-02T04:00:21.547Z,7.90
2023-05-02T04:01:21.564Z,8.80
2023-05-02T04:02:21.565Z,10.10
2023-05-02T04:03:21.618Z,9.20
2023-05-02T04:04:21.567Z,8.60
2023-05-02T04:05:21.516Z,9.50
2023-05-02T04:06:21.610Z,9.70
2023-05-02T04:07:21.508Z,9.00
2023-05-02T04:08:21.481Z,10.20
2023-05-02T04:09:21.479Z,9.00
2023-05-02T04:10:21.468Z,10.70
2023-05-02T04:11:21.479Z,9.00
2023-05-02T04:12:21.492Z,10.10
2023-05-02T04:13:21.478Z,9.90
2023-05-02T04:14:21.507Z,9.50
2023-05-02T04:15:21.437Z,10.40
2023-05-02T04:16:21.453Z,9.80
2023-05-02T04:17:21.442Z,11.30
2023-05-02T04:18:21.416Z,11.00
2023-05-02T04:19:21.454Z,9.30
2023-05-02T04:20:21.420Z,12.10
2023-05-02T04:21:21.423Z,11.30
2023-05-02T04:22:21.371Z,11.90
2023-05-02T04:23:21.378Z,10.60
2023-05-02T04:24:21.362Z,10.20
2023-05-02T04:25:21.407Z,12.00
2023-05-02T04:26:21.336Z,11.70
2023-05-02T04:27:21.335Z,11.90
2023-05-02T04:28:21.311Z,10.90
2023-05-02T04:29:21.342Z,11.70
2023-05-02T04:30:21.329Z,10.30
2023-05-02T04:31:21.386Z,11.70
2023-05-02T04:32:21.293Z,12.90
2023-05-02T04:33:21.407Z,11.60
2023-05-02T04:34:21.290Z,10.60
2023-05-02T04:35:21.579Z,12.90
2023-05-02T04:36:21.277Z,11.50
2023-05-02T04:37:21.329Z,12.60
2023-05-02T04:38:21.251Z,11.70
2023-05-02T04:39:21.249Z,12.30
2023-05-02T04:40:21.240Z,11.00
2023-05-02T04:41:21.239Z,12.20
2023-05-02T04:42:21.245Z,12.90
2023-05-02T04:43:23.213Z,13.30
2023-05-02T04:44:21.201Z,10.50
2023-05-02T04:45:21.202Z,11.80
2023-05-02T04:46:21.197Z,11.50
2023-05-02T04:47:21.216Z,12.30
2023-05-02T04:48:29.846Z,11.80
2023-05-02T04:49:21.200Z,10.70
2023-05-02T04:50:21.161Z,12.50
2023-05-02T04:51:21.187Z,11.80
2023-05-02T04:52:21.127Z,13.40
2023-05-02T04:53:21.218Z,10.90
2023-05-02T04:54:21.409Z,11.20
2023-05-02T04:55:21.115Z,11.10
2023-05-02T04:56:21.095Z,11.70
2023-05-02T04:57:23.274Z,11.20
2023-05-02T04:58:21.226Z,12.20
2023-05-02T04:59:21.155Z,11.10
2023-05-02T05:00:21.116Z,12.40
2023-05-02T05:01:21.105Z,11.90
2023-05-02T05:02:21.057Z,11.80
2023-05-02T05:03:21.299Z,13.40
2023-05-02T05:04:21.057Z,12.10
2023-05-02T05:05:21.180Z,12.90
2023-05-02T05:06:21.201Z,12.70
2023-05-02T05:07:21.084Z,11.90
2023-05-02T05:08:20.995Z,11.60
2023-05-02T05:09:21.494Z,12.40
2023-05-02T05:10:22.919Z,11.40
2023-05-02T05:11:23.958Z,12.50
2023-05-02T05:12:23.398Z,13.30
2023-05-02T05:16:21.553Z,13.00
2023-05-02T05:17:20.653Z,12.10
2023-05-02T05:18:20.049Z,11.50
2023-05-02T05:19:20.036Z,11.50
2023-05-02T05:20:22.581Z,11.50
2023-05-02T05:22:57.381Z,11.70
2023-05-02T05:23:57.481Z,11.90
2023-05-02T05:24:57.394Z,10.50
2023-05-02T05:25:57.364Z,12.60
2023-05-02T05:26:57.386Z,11.50
2023-05-02T05:27:57.349Z,11.30
2023-05-02T05:28:57.347Z,10.70
2023-05-02T05:29:57.431Z,13.40
2023-05-02T05:30:57.335Z,11.30
2023-05-02T05:31:57.326Z,12.10
2023-05-02T05:32:57.452Z,11.60
2023-05-02T05:33:57.365Z,13.70
2023-05-02T05:34:57.286Z,11.10
2023-05-02T05:35:57.320Z,12.30
2023-05-02T05:36:57.299Z,13.10
2023-05-02T05:37:57.281Z,14.00
2023-05-02T05:38:57.312Z,11.90
2023-05-02T05:39:57.335Z,13.70
2023-05-02T05:40:57.242Z,12.70
2023-05-02T05:41:57.247Z,12.20
2023-05-02T05:42:57.251Z,10.90
2023-05-02T05:43:57.218Z,10.80
2023-05-02T05:44:57.268Z,11.30
2023-05-02T05:45:57.246Z,12.10
2023-05-02T05:46:57.284Z,11.40
2023-05-02T05:47:57.265Z,11.40
2023-05-02T05:48:57.197Z,12.40
2023-05-02T05:49:57.194Z,11.80
2023-05-02T05:50:57.191Z,11.60
2023-05-02T05:51:57.154Z,11.40
2023-05-02T05:52:57.152Z,12.10
2023-05-02T05:53:57.137Z,12.10
2023-05-02T05:54:57.168Z,11.20
2023-05-02T05:55:57.139Z,11.40
2023-05-02T05:56:57.189Z,12.40
2023-05-02T05:57:57.124Z,12.30
2023-05-02T05:58:57.110Z,11.00
2023-05-02T05:59:57.238Z,11.00
2023-05-02T06:00:57.111Z,11.60
2023-05-02T06:01:57.077Z,11.40
2023-05-02T06:02:57.417Z,11.30
2023-05-02T06:03:57.148Z,11.00
2023-05-02T06:04:57.312Z,10.00
2023-05-02T06:05:57.033Z,13.20
2023-05-02T06:06:57.140Z,11.60
2023-05-02T06:07:57.011Z,12.40
2023-05-02T06:08:57.059Z,12.90
2023-05-02T06:09:57.036Z,12.60
2023-05-02T06:10:57.009Z,11.90
2023-05-02T06:11:56.996Z,13.40
2023-05-02T06:12:57.039Z,11.70
2023-05-02T06:13:57.017Z,12.50
2023-05-02T06:14:57.001Z,12.20
2023-05-02T06:15:56.967Z,14.40
2023-05-02T06:16:56.963Z,14.80
2023-05-02T06:17:57.010Z,15.30
2023-05-02T06:18:56.940Z,16.00
2023-05-02T06:19:56.959Z,16.40
2023-05-02T06:20:56.909Z,15.30
2023-05-02T06:21:56.891Z,15.60
2023-05-02T06:22:56.888Z,15.80
2023-05-02T06:23:56.885Z,16.30
2023-05-02T06:24:56.881Z,14.40
2023-05-02T06:25:56.884Z,14.20
2023-05-02T06:26:56.889Z,17.60
2023-05-02T06:27:56.854Z,18.50
2023-05-02T06:28:56.884Z,19.80
2023-05-02T06:29:56.848Z,16.30
2023-05-02T06:30:56.844Z,17.30
2023-05-02T06:31:56.978Z,18.20
2023-05-02T06:32:56.886Z,16.20
2023-05-02T06:33:56.799Z,14.20
2023-05-02T06:34:56.807Z,14.90
2023-05-02T06:35:56.966Z,12.90
2023-05-02T06:36:56.794Z,13.10
2023-05-02T06:37:56.799Z,14.40
2023-05-02T06:38:56.771Z,16.60
2023-05-02T06:39:56.751Z,17.90
2023-05-02T06:40:56.801Z,17.10
2023-05-02T06:41:56.725Z,17.50
2023-05-02T06:42:56.718Z,17.20
2023-05-02T06:43:56.754Z,17.80
2023-05-02T06:44:56.695Z,17.30
2023-05-02T06:45:56.692Z,18.60
2023-05-02T06:46:56.797Z,20.70
2023-05-02T06:47:56.733Z,23.40
2023-05-02T06:48:56.665Z,25.20
2023-05-02T06:49:56.679Z,25.40
2023-05-02T06:50:56.668Z,24.90
2023-05-02T06:51:56.650Z,26.00
2023-05-02T06:52:56.643Z,27.70
2023-05-02T06:53:56.673Z,26.10
2023-05-02T06:54:56.678Z,26.70
2023-05-02T06:55:56.639Z,28.10
2023-05-02T06:56:56.618Z,27.30
2023-05-02T06:57:56.603Z,25.40
2023-05-02T06:58:56.617Z,28.60
2023-05-02T06:59:56.691Z,26.50
2023-05-02T07:00:56.634Z,29.10
2023-05-02T07:01:56.622Z,28.80
2023-05-02T07:02:56.662Z,27.90
2023-05-02T07:03:56.555Z,29.40
2023-05-02T07:04:56.552Z,30.40
2023-05-02T07:05:56.529Z,30.40
2023-05-02T07:06:56.578Z,29.50
2023-05-02T07:07:56.540Z,29.90
2023-05-02T07:08:56.510Z,29.30
2023-05-02T07:09:56.528Z,27.90
2023-05-02T07:10:56.483Z,27.90
2023-05-02T07:11:56.475Z,29.10
2023-05-02T07:12:56.504Z,27.70
2023-05-02T07:13:56.451Z,28.70
2023-05-02T07:14:56.531Z,27.00
2023-05-02T07:15:56.476Z,28.70
2023-05-02T07:16:56.542Z,26.60
2023-05-02T07:17:56.473Z,26.90
2023-05-02T07:18:56.444Z,25.60
2023-05-02T07:19:56.394Z,25.30
2023-05-02T07:20:56.390Z,26.10
2023-05-02T07:21:56.375Z,26.40
2023-05-02T07:22:56.781Z,24.90
2023-05-02T07:23:56.377Z,25.40
2023-05-02T07:24:56.398Z,25.70
2023-05-02T07:25:56.348Z,23.90
2023-05-02T07:26:56.355Z,22.80
2023-05-02T07:27:56.355Z,24.50
2023-05-02T07:28:56.332Z,22.70
2023-05-02T07:29:56.318Z,23.70
2023-05-02T07:30:56.335Z,21.80
2023-05-02T07:31:56.359Z,23.00
2023-05-02T07:32:56.312Z,23.10
2023-05-02T07:33:56.273Z,21.60
2023-05-02T07:34:56.342Z,22.80
2023-05-02T07:35:56.248Z,23.90
2023-05-02T07:36:56.295Z,24.60
2023-05-02T07:37:56.241Z,22.30
2023-05-02T07:38:56.260Z,23.90
2023-05-02T07:39:56.239Z,23.00
2023-05-02T07:40:56.229Z,20.80
2023-05-02T07:41:56.234Z,22.10
2023-05-02T07:42:56.234Z,21.40
2023-05-02T07:43:56.227Z,19.80
2023-05-02T07:44:56.194Z,20.80
2023-05-02T07:45:56.330Z,20.10
2023-05-02T07:46:56.181Z,20.10
2023-05-02T07:47:56.202Z,18.10
2023-05-02T07:48:56.209Z,20.20
2023-05-02T07:49:56.172Z,17.50
2023-05-02T07:50:56.132Z,18.40
2023-05-02T07:51:56.178Z,18.50
2023-05-02T07:52:56.151Z,18.70
2023-05-02T07:53:56.129Z,17.70
2023-05-02T07:54:56.150Z,19.00
2023-05-02T07:55:56.110Z,18.50
2023-05-02T07:56:56.087Z,19.40
2023-05-02T07:57:56.087Z,18.40
2023-05-02T07:58:56.066Z,18.80
2023-05-02T07:59:56.087Z,18.50
2023-05-02T08:00:56.081Z,18.30
2023-05-02T08:01:56.069Z,18.70
2023-05-02T08:02:56.104Z,19.20
2023-05-02T08:03:56.252Z,17.30
2023-05-02T08:04:56.050Z,16.90
2023-05-02T08:05:56.025Z,19.60
2023-05-02T08:06:56.022Z,18.70
2023-05-02T08:07:56.003Z,18.30
2023-05-02T08:08:55.977Z,17.40
2023-05-02T08:09:56.024Z,18.50
2023-05-02T08:10:56.027Z,19.50
2023-05-02T08:11:56.056Z,19.20
2023-05-02T08:12:55.947Z,17.70
2023-05-02T08:13:55.956Z,18.30
2023-05-02T08:14:55.933Z,17.60
2023-05-02T08:15:55.964Z,17.50
2023-05-02T08:16:55.976Z,19.00
2023-05-02T08:17:55.993Z,18.80
2023-05-02T08:18:55.884Z,19.10
2023-05-02T08:19:55.888Z,18.00
2023-05-02T08:20:55.897Z,17.20
2023-05-02T08:21:55.881Z,18.50
2023-05-02T08:22:57.519Z,16.70
2023-05-02T08:23:55.891Z,17.60
2023-05-02T08:24:55.865Z,17.20
2023-05-02T08:25:55.867Z,16.60
2023-05-02T08:26:55.834Z,15.00
2023-05-02T08:27:55.906Z,12.50
2023-05-02T08:28:55.837Z,11.00
2023-05-02T08:29:57.395Z,14.80
2023-05-02T08:30:55.802Z,15.30
2023-05-02T08:31:55.838Z,16.60
2023-05-02T08:32:55.792Z,14.30
2023-05-02T08:33:55.813Z,14.10
2023-05-02T08:34:55.755Z,13.40
2023-05-02T08:35:55.772Z,11.90
2023-05-02T08:36:58.224Z,12.10
2023-05-02T08:37:55.741Z,11.80
2023-05-02T08:38:55.734Z,11.10
2023-05-02T08:39:55.779Z,11.10
2023-05-02T08:40:55.717Z,10.70
2023-05-02T08:41:55.746Z,10.00
2023-05-02T08:42:55.688Z,9.50
2023-05-02T08:43:55.700Z,9.70
2023-05-02T08:44:55.745Z,10.40
2023-05-02T08:45:55.732Z,10.20
2023-05-02T08:46:55.706Z,10.10
2023-05-02T08:47:55.734Z,9.80
2023-05-02T08:48:55.636Z,8.70
2023-05-02T08:49:55.644Z,8.70
2023-05-02T08:50:55.638Z,8.80
2023-05-02T08:51:55.676Z,9.60
2023-05-02T08:52:55.613Z,8.20
2023-05-02T08:53:55.618Z,8.50
2023-05-02T08:54:55.594Z,9.30
2023-05-02T08:55:55.604Z,9.70
2023-05-02T08:56:55.583Z,8.90
2023-05-02T08:57:55.595Z,9.10
2023-05-02T08:58:55.545Z,11.00
2023-05-02T08:59:55.622Z,9.40
2023-05-02T09:00:55.551Z,9.30
2023-05-02T09:01:55.564Z,9.30
2023-05-02T09:02:55.668Z,9.30
2023-05-02T09:03:55.579Z,8.70
2023-05-02T09:04:55.504Z,8.00
2023-05-02T09:05:55.525Z,10.00
2023-05-02T09:06:55.501Z,8.60
2023-05-02T09:07:55.492Z,8.60
2023-05-02T09:08:55.515Z,9.10
2023-05-02T09:09:55.498Z,9.50
2023-05-02T09:10:55.457Z,8.40
2023-05-02T09:11:55.468Z,8.30
2023-05-02T09:12:55.451Z,8.40
2023-05-02T09:13:55.449Z,8.30
2023-05-02T09:14:55.420Z,7.10
2023-05-02T09:15:55.447Z,7.70
2023-05-02T09:16:55.503Z,8.10
2023-05-02T09:17:55.538Z,10.60
2023-05-02T09:18:55.387Z,9.00
2023-05-02T09:19:55.381Z,7.70
2023-05-02T09:20:55.381Z,8.50
2023-05-02T09:21:55.424Z,8.80
2023-05-02T09:22:55.394Z,8.40
2023-05-02T09:23:55.358Z,6.60
2023-05-02T09:24:55.354Z,6.40
2023-05-02T09:25:55.348Z,6.90
2023-05-02T09:26:55.346Z,6.40
2023-05-02T09:27:55.455Z,6.70
2023-05-02T09:28:55.302Z,5.30
2023-05-02T09:29:55.317Z,6.70
2023-05-02T09:30:55.337Z,5.70
2023-05-02T09:31:56.654Z,5.30
2023-05-02T09:32:55.652Z,6.30
2023-05-02T09:33:55.282Z,6.50
2023-05-02T09:34:55.241Z,5.80
2023-05-02T09:35:55.253Z,5.90
2023-05-02T09:36:55.229Z,6.30
2023-05-02T09:37:55.231Z,5.60
2023-05-02T09:38:55.230Z,5.30
2023-05-02T09:39:55.228Z,6.70
2023-05-02T09:40:55.219Z,6.80
2023-05-02T09:41:55.268Z,6.50
2023-05-02T09:42:55.185Z,6.30
2023-05-02T09:43:55.191Z,6.90
2023-05-02T09:44:55.174Z,6.80
2023-05-02T09:45:55.247Z,6.00
2023-05-02T09:46:55.144Z,5.40
2023-05-02T09:47:55.541Z,6.30
2023-05-02T09:48:55.200Z,5.50
2023-05-02T09:49:55.138Z,5.70
2023-05-02T09:50:55.142Z,6.60
2023-05-02T09:51:55.121Z,6.80
2023-05-02T09:52:55.104Z,6.20
2023-05-02T09:53:55.104Z,6.70
2023-05-02T09:54:55.074Z,7.10
2023-05-02T09:55:55.091Z,6.60
2023-05-02T09:56:55.048Z,7.30
2023-05-02T09:57:55.050Z,5.40
2023-05-02T09:58:55.028Z,5.80
2023-05-02T09:59:55.027Z,5.80
2023-05-02T10:00:55.026Z,6.80
2023-05-02T10:01:55.116Z,5.90
2023-05-02T10:02:55.054Z,6.10
2023-05-02T10:03:55.024Z,6.90
2023-05-02T10:04:54.982Z,6.00
2023-05-02T10:05:55.182Z,5.20
2023-05-02T10:06:54.989Z,5.30
2023-05-02T10:07:55.024Z,5.60
2023-05-02T10:08:54.953Z,5.90
2023-05-02T10:09:54.949Z,5.80
2023-05-02T10:10:54.920Z,5.80
2023-05-02T10:11:54.952Z,6.50
2023-05-02T10:12:54.935Z,4.70
2023-05-02T10:13:54.913Z,5.50
2023-05-02T10:14:54.910Z,5.70
2023-05-02T10:15:54.959Z,5.70
2023-05-02T10:16:54.882Z,5.30
2023-05-02T10:17:54.920Z,5.40
2023-05-02T10:18:54.891Z,10.20
2023-05-02T10:19:55.741Z,5.80
2023-05-02T10:20:54.866Z,5.60
2023-05-02T10:21:54.868Z,5.20
2023-05-02T10:22:54.883Z,6.10
2023-05-02T10:23:54.867Z,5.60
2023-05-02T10:24:54.863Z,5.10
2023-05-02T10:25:54.827Z,5.50
2023-05-02T10:26:54.798Z,4.90
2023-05-02T10:27:54.861Z,6.00
2023-05-02T10:28:54.799Z,4.90
2023-05-02T10:29:54.775Z,6.30
2023-05-02T10:30:54.819Z,5.50
2023-05-02T10:31:54.800Z,6.60
2023-05-02T10:32:54.807Z,5.70
2023-05-02T10:33:54.834Z,6.00
2023-05-02T10:34:54.752Z,5.40
2023-05-02T10:35:54.735Z,5.40
2023-05-02T10:36:54.721Z,6.20
2023-05-02T10:37:54.716Z,5.40
2023-05-02T10:38:54.700Z,5.20
2023-05-02T10:39:54.714Z,4.80
2023-05-02T10:40:54.725Z,5.30
2023-05-02T10:41:54.686Z,4.60
2023-05-02T10:42:54.660Z,5.60
2023-05-02T10:43:54.671Z,6.60
2023-05-02T10:44:54.645Z,4.30
2023-05-02T10:45:54.655Z,4.70
2023-05-02T10:46:54.757Z,4.40
2023-05-02T10:47:54.702Z,4.90
2023-05-02T10:48:54.630Z,5.30
2023-05-02T10:49:54.608Z,4.50
2023-05-02T10:50:54.669Z,4.20
2023-05-02T10:51:54.596Z,4.10
2023-05-02T10:52:54.575Z,4.70
2023-05-02T10:53:54.593Z,5.20
2023-05-02T10:54:54.585Z,4.70
2023-05-02T10:55:54.550Z,5.10
2023-05-02T10:56:54.528Z,4.90
2023-05-02T10:57:54.538Z,4.90
2023-05-02T10:58:54.688Z,5.10
2023-05-02T10:59:54.553Z,4.90
2023-05-02T11:00:54.534Z,5.20
2023-05-02T11:01:54.532Z,4.80
2023-05-02T11:02:54.591Z,5.00
2023-05-02T11:03:54.502Z,5.40
2023-05-02T11:04:54.455Z,4.70
2023-05-02T11:05:54.465Z,5.30
2023-05-02T11:06:54.478Z,5.20
2023-05-02T11:07:54.464Z,6.10
2023-05-02T11:08:54.422Z,5.80
2023-05-02T11:09:54.481Z,4.80
2023-05-02T11:10:54.406Z,5.40
2023-05-02T11:11:54.413Z,5.00
2023-05-02T11:12:54.416Z,4.60
2023-05-02T11:13:54.462Z,5.00
2023-05-02T11:14:54.387Z,5.20
2023-05-02T11:15:54.435Z,5.70
2023-05-02T11:16:54.441Z,5.70
2023-05-02T11:17:54.427Z,6.60
2023-05-02T11:18:54.413Z,6.70
2023-05-02T11:19:54.394Z,6.50
2023-05-02T11:20:54.584Z,7.30
2023-05-02T11:21:54.347Z,6.30
2023-05-02T11:22:54.309Z,6.60
2023-05-02T11:23:54.315Z,6.40
2023-05-02T11:24:54.310Z,6.80
2023-05-02T11:25:54.407Z,6.40
2023-05-02T11:26:54.296Z,6.60
2023-05-02T11:27:54.312Z,8.30
2023-05-02T11:28:54.259Z,6.60
2023-05-02T11:29:54.262Z,6.70
2023-05-02T11:30:55.997Z,7.80
2023-05-02T11:31:54.251Z,6.20
2023-05-02T11:32:54.420Z,7.90
2023-05-02T11:33:54.251Z,6.90
2023-05-02T11:34:54.226Z,8.10
2023-05-02T11:35:54.194Z,7.90
2023-05-02T11:36:54.181Z,8.00
2023-05-02T11:37:54.204Z,7.90
2023-05-02T11:38:54.184Z,8.10
2023-05-02T11:39:54.158Z,8.10
2023-05-02T11:40:54.144Z,8.30
2023-05-02T11:41:54.154Z,8.30
2023-05-02T11:42:54.227Z,7.80
2023-05-02T11:43:54.154Z,7.90
2023-05-02T11:44:54.120Z,9.70
2023-05-02T11:45:54.153Z,9.30
2023-05-02T11:46:54.111Z,9.50
2023-05-02T11:47:54.198Z,8.30
2023-05-02T11:48:54.121Z,8.50
2023-05-02T11:49:54.101Z,8.40
2023-05-02T11:50:54.052Z,8.40
2023-05-02T11:51:54.073Z,8.20
2023-05-02T11:52:54.034Z,9.20
2023-05-02T11:53:54.052Z,9.50
2023-05-02T11:54:54.068Z,8.20
2023-05-02T11:55:54.024Z,8.50
2023-05-02T11:56:54.047Z,8.40
2023-05-02T11:57:54.049Z,7.60
2023-05-02T11:58:54.012Z,7.70
2023-05-02T11:59:53.996Z,8.00
2023-05-02T12:00:53.974Z,7.00
2023-05-02T12:01:53.988Z,8.10
2023-05-02T12:02:54.016Z,7.90
2023-05-02T12:03:53.972Z,6.80
2023-05-02T12:04:53.965Z,6.50
2023-05-02T12:05:54.034Z,6.90
2023-05-02T12:06:54.007Z,6.80
2023-05-02T12:07:53.964Z,6.50
2023-05-02T12:08:53.924Z,5.90
2023-05-02T12:09:53.900Z,6.30
2023-05-02T12:10:53.906Z,7.50
2023-05-02T12:11:53.879Z,7.10
2023-05-02T12:12:53.905Z,6.50
2023-05-02T12:13:53.866Z,5.70
2023-05-02T12:14:53.866Z,7.00
2023-05-02T12:15:53.892Z,6.70
2023-05-02T12:16:53.834Z,7.10
2023-05-02T12:17:53.896Z,6.10
2023-05-02T12:18:53.862Z,5.70
2023-05-02T12:19:53.810Z,6.60
2023-05-02T12:20:53.832Z,5.80
2023-05-02T12:21:53.793Z,6.40
2023-05-02T12:22:53.797Z,7.50
2023-05-02T12:23:53.792Z,12.80
2023-05-02T12:24:53.892Z,7.80
2023-05-02T12:25:53.751Z,6.50
2023-05-02T12:26:53.803Z,6.60
2023-05-02T12:27:53.789Z,6.00
2023-05-02T12:28:53.747Z,6.30
2023-05-02T12:29:53.727Z,5.50
2023-05-02T12:30:53.779Z,5.90
2023-05-02T12:31:53.827Z,5.40
2023-05-02T12:32:53.747Z,5.60
2023-05-02T12:33:53.687Z,5.80
2023-05-02T12:34:53.861Z,5.40
2023-05-02T12:35:53.677Z,4.80
2023-05-02T12:36:53.699Z,5.60
2023-05-02T12:37:53.692Z,5.50
2023-05-02T12:38:54.566Z,6.50
2023-05-02T12:39:53.676Z,5.40
2023-05-02T12:40:53.648Z,4.90
2023-05-02T12:41:53.613Z,6.50
2023-05-02T12:42:53.622Z,5.80
2023-05-02T12:43:53.660Z,5.10
2023-05-02T12:44:53.657Z,5.00
2023-05-02T12:45:53.660Z,5.90
2023-05-02T12:46:53.713Z,5.60
2023-05-02T12:47:53.623Z,5.10
2023-05-02T12:48:53.563Z,6.10
2023-05-02T12:49:53.575Z,5.50
2023-05-02T12:50:53.591Z,5.10
2023-05-02T12:51:53.532Z,5.60
2023-05-02T12:52:53.541Z,5.70
2023-05-02T12:53:53.505Z,5.20
2023-05-02T12:54:53.543Z,5.10
2023-05-02T12:55:53.544Z,5.70
2023-05-02T12:56:53.530Z,5.90
2023-05-02T12:57:53.487Z,4.80
2023-05-02T12:58:53.482Z,6.10
2023-05-02T12:59:53.454Z,4.90
2023-05-02T13:00:53.584Z,5.20
2023-05-02T13:01:53.455Z,5.20
2023-05-02T13:02:53.588Z,4.80
2023-05-02T13:03:53.489Z,6.10
2023-05-02T13:04:53.441Z,5.40
2023-05-02T13:05:53.404Z,5.70
2023-05-02T13:06:53.518Z,6.60
2023-05-02T13:07:53.414Z,6.10
2023-05-02T13:08:53.453Z,5.60
2023-05-02T13:09:53.367Z,6.30
2023-05-02T13:10:53.365Z,6.60
2023-05-02T13:11:53.551Z,7.30